createdAt,value
2022-12-20T00:00:05.017Z,87.14
2022-12-20T00:01:05.000Z,87.14
2022-12-20T00:02:05.087Z,87.14
2022-12-20T00:03:05.081Z,87.24
2022-12-20T00:04:04.987Z,87.24
2022-12-20T00:05:04.955Z,87.04
2022-12-20T00:06:04.946Z,87.18
2022-12-20T00:07:04.929Z,87.70
2022-12-20T00:08:04.922Z,88.01
2022-12-20T00:09:04.942Z,88.53
2022-12-20T00:10:04.898Z,88.63
2022-12-20T00:11:04.890Z,88.53
2022-12-20T00:12:04.880Z,88.32
2022-12-20T00:13:04.874Z,88.73
2022-12-20T00:14:04.871Z,88.73
2022-12-20T00:15:04.871Z,88.78
2022-12-20T00:16:04.831Z,89.19
2022-12-20T00:17:04.818Z,89.71
2022-12-20T00:18:04.919Z,89.81
2022-12-20T00:19:04.804Z,90.02
2022-12-20T00:20:11.870Z,89.15
2022-12-20T00:21:04.793Z,88.59
2022-12-20T00:22:04.767Z,88.21
2022-12-20T00:23:04.765Z,88.32
2022-12-20T00:24:04.744Z,88.73
2022-12-20T00:25:04.729Z,89.04
2022-12-20T00:26:04.750Z,89.15
2022-12-20T00:27:04.719Z,89.04
2022-12-20T00:28:04.710Z,89.15
2022-12-20T00:29:04.701Z,88.94
2022-12-20T00:30:04.720Z,88.32
2022-12-20T00:31:04.687Z,88.32
2022-12-20T00:32:04.785Z,88.78
2022-12-20T00:33:04.642Z,88.94
2022-12-20T00:34:04.635Z,88.94
2022-12-20T00:35:04.620Z,89.15
2022-12-20T00:36:04.599Z,89.04
2022-12-20T00:37:04.624Z,88.94
2022-12-20T00:38:04.587Z,89.25
2022-12-20T00:39:04.586Z,89.67
2022-12-20T00:40:04.559Z,88.94
2022-12-20T00:41:04.554Z,89.19
2022-12-20T00:42:04.533Z,89.92
2022-12-20T00:43:04.545Z,90.33
2022-12-20T00:44:04.506Z,90.75
2022-12-20T00:45:04.510Z,90.50
2022-12-20T00:46:04.491Z,89.46
2022-12-20T00:47:04.600Z,89.11
2022-12-20T00:48:04.531Z,88.21
2022-12-20T00:49:04.470Z,88.53
2022-12-20T00:50:04.440Z,88.94
2022-12-20T00:51:04.462Z,89.15
2022-12-20T00:52:04.430Z,88.63
2022-12-20T00:53:04.408Z,88.84
2022-12-20T00:54:04.420Z,88.84
2022-12-20T00:55:04.390Z,88.84
2022-12-20T00:56:04.380Z,88.21
2022-12-20T00:57:04.382Z,88.63
2022-12-20T00:58:04.347Z,89.09
2022-12-20T00:59:04.373Z,89.56
2022-12-20T01:00:04.327Z,89.36
2022-12-20T01:01:04.418Z,89.50
2022-12-20T01:02:04.520Z,89.71
2022-12-20T01:03:04.434Z,89.92
2022-12-20T01:04:04.285Z,89.92
2022-12-20T01:05:04.299Z,90.08
2022-12-20T01:06:04.256Z,89.77
2022-12-20T01:07:04.276Z,89.61
2022-12-20T01:08:04.238Z,90.12
2022-12-20T01:09:04.225Z,90.33
2022-12-20T01:10:04.217Z,89.87
2022-12-20T01:11:04.223Z,89.36
2022-12-20T01:12:04.192Z,89.15
2022-12-20T01:13:04.187Z,89.15
2022-12-20T01:14:04.164Z,88.94
2022-12-20T01:15:04.168Z,88.84
2022-12-20T01:16:04.204Z,88.84
2022-12-20T01:17:04.305Z,88.84
2022-12-20T01:18:04.125Z,88.79
2022-12-20T01:19:04.116Z,88.59
2022-12-20T01:20:04.132Z,88.53
2022-12-20T01:21:04.097Z,88.84
2022-12-20T01:22:04.103Z,88.94
2022-12-20T01:23:04.080Z,88.84
2022-12-20T01:24:04.054Z,89.00
2022-12-20T01:25:04.045Z,88.79
2022-12-20T01:26:04.031Z,88.69
2022-12-20T01:27:04.023Z,88.39
2022-12-20T01:28:04.025Z,88.28
2022-12-20T01:29:04.009Z,88.28
2022-12-20T01:30:03.981Z,88.18
2022-12-20T01:31:03.974Z,87.97
2022-12-20T01:32:04.043Z,88.28
2022-12-20T01:33:03.973Z,88.18
2022-12-20T01:34:03.943Z,88.59
2022-12-20T01:35:03.922Z,88.39
2022-12-20T01:36:03.926Z,88.55
2022-12-20T01:37:03.903Z,88.24
2022-12-20T01:38:03.899Z,87.82
2022-12-20T01:39:03.907Z,87.20
2022-12-20T01:40:03.895Z,87.30
2022-12-20T01:41:03.871Z,86.99
2022-12-20T01:42:03.852Z,87.82
2022-12-20T01:43:03.843Z,87.41
2022-12-20T01:44:03.822Z,87.27
2022-12-20T01:45:03.832Z,86.89
2022-12-20T01:46:03.842Z,87.51
2022-12-20T01:47:03.795Z,87.72
2022-12-20T01:48:03.784Z,87.82
2022-12-20T01:49:03.776Z,87.93
2022-12-20T01:50:03.764Z,87.51
2022-12-20T01:51:03.764Z,87.47
2022-12-20T01:52:03.740Z,86.96
2022-12-20T01:53:03.731Z,87.37
2022-12-20T01:54:03.710Z,87.47
2022-12-20T01:55:03.718Z,87.06
2022-12-20T01:56:03.731Z,86.65
2022-12-20T01:57:03.691Z,87.06
2022-12-20T01:58:03.681Z,86.29
2022-12-20T01:59:03.653Z,86.60
2022-12-20T02:00:03.662Z,85.78
2022-12-20T02:01:03.707Z,85.47
2022-12-20T02:02:03.910Z,85.99
2022-12-20T02:03:03.807Z,85.42
2022-12-20T02:04:03.591Z,85.02
2022-12-20T02:05:03.590Z,85.05
2022-12-20T02:06:03.572Z,85.47
2022-12-20T02:07:03.580Z,85.47
2022-12-20T02:08:03.590Z,85.68
2022-12-20T02:09:03.545Z,85.57
2022-12-20T02:10:03.531Z,85.32
2022-12-20T02:11:03.519Z,85.02
2022-12-20T02:12:03.528Z,85.11
2022-12-20T02:13:03.502Z,85.02
2022-12-20T02:14:03.512Z,84.39
2022-12-20T02:15:03.473Z,84.29
2022-12-20T02:16:03.460Z,84.70
2022-12-20T02:17:03.503Z,84.70
2022-12-20T02:18:03.511Z,85.11
2022-12-20T02:19:03.449Z,84.91
2022-12-20T02:20:03.443Z,85.02
2022-12-20T02:21:03.411Z,85.26
2022-12-20T02:22:03.389Z,85.11
2022-12-20T02:23:03.388Z,85.11
2022-12-20T02:24:03.374Z,84.81
2022-12-20T02:25:03.359Z,84.91
2022-12-20T02:26:03.390Z,84.70
2022-12-20T02:27:03.340Z,85.02
2022-12-20T02:28:03.335Z,85.16
2022-12-20T02:29:03.318Z,85.47
2022-12-20T02:30:03.341Z,85.88
2022-12-20T02:31:03.296Z,85.99
2022-12-20T02:32:03.356Z,85.88
2022-12-20T02:33:03.280Z,85.68
2022-12-20T02:34:03.278Z,85.78
2022-12-20T02:35:03.248Z,85.57
2022-12-20T02:36:03.239Z,85.47
2022-12-20T02:37:03.245Z,85.68
2022-12-20T02:38:03.242Z,85.36
2022-12-20T02:39:03.217Z,85.68
2022-12-20T02:40:03.207Z,85.47
2022-12-20T02:41:03.193Z,85.36
2022-12-20T02:42:03.168Z,85.36
2022-12-20T02:43:03.155Z,85.36
2022-12-20T02:44:03.171Z,85.82
2022-12-20T02:45:03.184Z,85.71
2022-12-20T02:46:03.157Z,86.23
2022-12-20T02:47:03.132Z,86.23
2022-12-20T02:48:03.102Z,86.54
2022-12-20T02:49:03.101Z,86.65
2022-12-20T02:50:03.096Z,86.13
2022-12-20T02:51:03.066Z,85.68
2022-12-20T02:52:03.057Z,85.61
2022-12-20T02:53:03.051Z,86.02
2022-12-20T02:54:03.039Z,86.47
2022-12-20T02:55:03.045Z,87.10
2022-12-20T02:56:03.017Z,86.79
2022-12-20T02:57:02.997Z,87.06
2022-12-20T02:58:03.001Z,86.44
2022-12-20T02:59:02.995Z,85.61
2022-12-20T03:00:02.965Z,86.33
2022-12-20T03:01:03.041Z,86.13
2022-12-20T03:02:03.109Z,85.71
2022-12-20T03:03:03.038Z,86.33
2022-12-20T03:04:02.933Z,86.23
2022-12-20T03:05:02.911Z,86.75
2022-12-20T03:06:02.910Z,86.23
2022-12-20T03:07:02.904Z,86.33
2022-12-20T03:08:02.876Z,85.82
2022-12-20T03:09:02.865Z,86.13
2022-12-20T03:10:02.854Z,86.47
2022-12-20T03:11:02.857Z,87.20
2022-12-20T03:12:02.907Z,87.06
2022-12-20T03:13:02.836Z,86.75
2022-12-20T03:14:02.815Z,86.23
2022-12-20T03:15:02.791Z,85.82
2022-12-20T03:16:02.791Z,86.65
2022-12-20T03:17:02.819Z,86.58
2022-12-20T03:18:02.783Z,86.96
2022-12-20T03:19:02.746Z,86.23
2022-12-20T03:20:02.743Z,86.23
2022-12-20T03:21:02.727Z,86.33
2022-12-20T03:22:02.725Z,86.54
2022-12-20T03:23:02.703Z,86.85
2022-12-20T03:24:02.718Z,86.65
2022-12-20T03:25:02.680Z,86.50
2022-12-20T03:26:02.707Z,86.40
2022-12-20T03:27:02.659Z,85.99
2022-12-20T03:28:02.653Z,86.19
2022-12-20T03:29:02.634Z,85.57
2022-12-20T03:30:02.645Z,85.26
2022-12-20T03:31:02.670Z,85.99
2022-12-20T03:32:02.609Z,85.99
2022-12-20T03:33:02.590Z,85.57
2022-12-20T03:34:02.606Z,85.26
2022-12-20T03:35:02.570Z,85.47
2022-12-20T03:36:02.580Z,85.47
2022-12-20T03:37:02.553Z,85.02
2022-12-20T03:38:02.533Z,84.81
2022-12-20T03:39:02.523Z,84.95
2022-12-20T03:40:02.528Z,84.84
2022-12-20T03:41:02.506Z,85.16
2022-12-20T03:42:02.510Z,85.68
2022-12-20T03:43:02.483Z,85.36
2022-12-20T03:44:02.522Z,84.84
2022-12-20T03:45:02.453Z,85.16
2022-12-20T03:46:02.503Z,84.91
2022-12-20T03:47:02.432Z,84.70
2022-12-20T03:48:02.447Z,84.74
2022-12-20T03:49:02.411Z,84.84
2022-12-20T03:50:02.400Z,85.16
2022-12-20T03:51:02.391Z,85.42
2022-12-20T03:52:02.409Z,85.36
2022-12-20T03:53:02.362Z,85.36
2022-12-20T03:54:02.391Z,85.88
2022-12-20T03:55:02.341Z,85.84
2022-12-20T03:56:02.335Z,85.53
2022-12-20T03:57:02.322Z,85.78
2022-12-20T03:58:02.328Z,85.47
2022-12-20T03:59:02.301Z,85.68
2022-12-20T04:00:02.303Z,85.42
2022-12-20T04:01:02.435Z,85.02
2022-12-20T04:02:02.364Z,85.22
2022-12-20T04:03:02.377Z,85.36
2022-12-20T04:04:02.349Z,85.57
2022-12-20T04:05:02.252Z,85.63
2022-12-20T04:06:02.253Z,84.87
2022-12-20T04:07:02.210Z,84.15
2022-12-20T04:08:02.203Z,84.15
2022-12-20T04:09:02.181Z,84.25
2022-12-20T04:10:02.171Z,84.60
2022-12-20T04:11:02.180Z,85.02
2022-12-20T04:12:02.163Z,85.08
2022-12-20T04:13:02.143Z,84.77
2022-12-20T04:14:02.151Z,84.87
2022-12-20T04:15:02.149Z,85.08
2022-12-20T04:16:02.183Z,84.97
2022-12-20T04:17:02.090Z,84.87
2022-12-20T04:18:02.097Z,84.36
2022-12-20T04:19:02.064Z,84.77
2022-12-20T04:20:02.064Z,84.97
2022-12-20T04:21:02.061Z,84.94
2022-12-20T04:22:05.643Z,84.83
2022-12-20T04:23:02.024Z,84.21
2022-12-20T04:24:02.017Z,84.52
2022-12-20T04:25:02.000Z,84.63
2022-12-20T04:26:01.998Z,84.42
2022-12-20T04:27:02.003Z,84.42
2022-12-20T04:28:01.973Z,84.52
2022-12-20T04:29:01.973Z,83.76
2022-12-20T04:30:01.964Z,83.65
2022-12-20T04:31:01.984Z,83.59
2022-12-20T04:32:01.936Z,83.76
2022-12-20T04:33:01.930Z,83.65
2022-12-20T04:34:01.913Z,83.45
2022-12-20T04:35:01.891Z,82.93
2022-12-20T04:36:01.891Z,83.04
2022-12-20T04:37:01.967Z,82.69
2022-12-20T04:38:01.880Z,82.73
2022-12-20T04:39:01.878Z,83.14
2022-12-20T04:40:01.864Z,83.10
2022-12-20T04:41:01.830Z,82.59
2022-12-20T04:42:01.849Z,82.59
2022-12-20T04:43:01.801Z,82.79
2022-12-20T04:44:01.814Z,82.89
2022-12-20T04:45:01.829Z,83.25
2022-12-20T04:46:01.795Z,83.31
2022-12-20T04:47:01.812Z,83.20
2022-12-20T04:48:21.147Z,82.89
2022-12-20T04:49:02.742Z,82.75
2022-12-20T04:50:01.729Z,82.48
2022-12-20T04:51:01.786Z,83.17
2022-12-20T04:52:01.709Z,83.06
2022-12-20T04:53:01.704Z,82.51
2022-12-20T04:54:01.696Z,82.20
2022-12-20T04:55:01.727Z,81.65
2022-12-20T04:56:01.667Z,80.89
2022-12-20T04:57:01.677Z,80.82
2022-12-20T04:58:07.317Z,80.68
2022-12-20T04:59:02.655Z,80.27
2022-12-20T05:00:01.621Z,80.37
2022-12-20T05:01:01.609Z,79.75
2022-12-20T05:02:01.671Z,80.27
2022-12-20T05:03:01.737Z,80.47
2022-12-20T05:04:01.656Z,79.96
2022-12-20T05:05:01.559Z,79.96
2022-12-20T05:06:01.548Z,79.86
2022-12-20T05:07:01.529Z,80.10
2022-12-20T05:08:01.548Z,80.79
2022-12-20T05:09:01.509Z,80.27
2022-12-20T05:10:01.515Z,79.82
2022-12-20T05:11:01.490Z,79.72
2022-12-20T05:12:01.509Z,79.61
2022-12-20T05:13:07.203Z,79.86
2022-12-20T05:14:02.560Z,79.96
2022-12-20T05:15:01.441Z,80.16
2022-12-20T05:16:01.566Z,80.16
2022-12-20T05:17:01.434Z,80.37
2022-12-20T05:18:01.401Z,80.51
2022-12-20T05:19:01.409Z,80.79
2022-12-20T05:20:01.415Z,80.37
2022-12-20T05:21:01.367Z,80.06
2022-12-20T05:22:01.357Z,80.58
2022-12-20T05:23:01.349Z,80.16
2022-12-20T05:24:01.347Z,80.27
2022-12-20T05:25:01.344Z,80.47
2022-12-20T05:26:01.327Z,80.41
2022-12-20T05:27:01.316Z,80.79
2022-12-20T05:28:01.290Z,80.68
2022-12-20T05:29:01.311Z,80.58
2022-12-20T05:30:01.328Z,80.51
2022-12-20T05:31:01.347Z,80.82
2022-12-20T05:32:01.244Z,80.62
2022-12-20T05:33:01.234Z,80.62
2022-12-20T05:34:01.240Z,80.72
2022-12-20T05:35:01.224Z,80.62
2022-12-20T05:36:01.221Z,80.51
2022-12-20T05:37:01.190Z,80.47
2022-12-20T05:38:01.181Z,80.37
2022-12-20T05:39:04.182Z,80.27
2022-12-20T05:40:01.156Z,80.37
2022-12-20T05:41:01.154Z,80.16
2022-12-20T05:42:01.136Z,79.96
2022-12-20T05:43:01.116Z,79.61
2022-12-20T05:44:01.226Z,79.41
2022-12-20T05:45:01.087Z,79.44
2022-12-20T05:46:01.085Z,79.75
2022-12-20T05:47:01.154Z,79.75
2022-12-20T05:48:01.057Z,79.96
2022-12-20T05:49:01.059Z,79.75
2022-12-20T05:50:01.055Z,80.06
2022-12-20T05:51:01.020Z,79.96
2022-12-20T05:52:01.015Z,79.65
2022-12-20T05:53:05.961Z,79.55
2022-12-20T05:54:01.996Z,79.44
2022-12-20T05:55:01.021Z,79.34
2022-12-20T05:56:00.965Z,79.44
2022-12-20T05:57:00.946Z,79.75
2022-12-20T05:58:00.937Z,79.79
2022-12-20T05:59:00.945Z,80.00
2022-12-20T06:00:00.920Z,80.20
2022-12-20T06:01:00.906Z,80.20
2022-12-20T06:02:00.990Z,80.55
2022-12-20T06:03:01.041Z,81.27
2022-12-20T06:04:00.927Z,81.41
2022-12-20T06:05:00.857Z,82.03
2022-12-20T06:06:00.844Z,82.24
2022-12-20T06:07:00.827Z,82.75
2022-12-20T06:08:00.849Z,82.82
2022-12-20T06:09:00.806Z,82.26
2022-12-20T06:10:00.819Z,81.34
2022-12-20T06:11:00.788Z,81.03
2022-12-20T06:12:00.779Z,80.51
2022-12-20T06:13:00.772Z,80.62
2022-12-20T06:14:00.772Z,80.96
2022-12-20T06:15:00.761Z,81.07
2022-12-20T06:16:00.816Z,82.24
2022-12-20T06:17:00.723Z,83.20
2022-12-20T06:18:00.719Z,84.03
2022-12-20T06:19:00.721Z,84.89
2022-12-20T06:20:00.697Z,85.10
2022-12-20T06:21:00.677Z,84.79
2022-12-20T06:22:00.689Z,84.59
2022-12-20T06:23:00.676Z,84.48
2022-12-20T06:24:00.653Z,84.48
2022-12-20T06:25:00.641Z,84.48
2022-12-20T06:26:00.624Z,84.38
2022-12-20T06:27:00.609Z,84.59
2022-12-20T06:28:07.664Z,84.48
2022-12-20T06:29:00.593Z,84.17
2022-12-20T06:30:00.601Z,84.89
2022-12-20T06:31:00.563Z,84.55
2022-12-20T06:32:00.600Z,83.51
2022-12-20T06:33:00.568Z,83.41
2022-12-20T06:34:00.536Z,83.97
2022-12-20T06:35:00.515Z,83.83
2022-12-20T06:36:00.519Z,83.83
2022-12-20T06:37:00.497Z,83.37
2022-12-20T06:38:00.483Z,82.96
2022-12-20T06:39:04.521Z,82.86
2022-12-20T06:40:01.464Z,82.75
2022-12-20T06:41:00.453Z,82.45
2022-12-20T06:42:00.447Z,82.45
2022-12-20T06:43:00.430Z,82.10
2022-12-20T06:44:00.455Z,81.99
2022-12-20T06:45:00.404Z,81.79
2022-12-20T06:46:00.479Z,81.68
2022-12-20T06:47:00.623Z,81.58
2022-12-20T06:48:00.371Z,81.48
2022-12-20T06:49:00.368Z,81.48
2022-12-20T06:50:01.090Z,81.37
2022-12-20T06:51:00.347Z,81.27
2022-12-20T06:52:00.331Z,81.37
2022-12-20T06:53:00.310Z,81.68
2022-12-20T06:54:00.304Z,81.58
2022-12-20T06:55:00.313Z,81.48
2022-12-20T06:56:00.305Z,81.37
2022-12-20T06:57:00.280Z,81.31
2022-12-20T06:58:00.251Z,81.41
2022-12-20T06:59:00.248Z,81.51
2022-12-20T07:00:00.288Z,81.62
2022-12-20T07:01:00.259Z,81.93
2022-12-20T07:02:00.515Z,82.24
2022-12-20T07:03:00.308Z,82.03
2022-12-20T07:04:00.192Z,82.59
2022-12-20T07:05:00.183Z,83.00
2022-12-20T07:06:00.167Z,83.00
2022-12-20T07:07:00.174Z,82.86
2022-12-20T07:08:00.143Z,82.69
2022-12-20T07:09:00.154Z,82.89
2022-12-20T07:10:00.148Z,83.10
2022-12-20T07:11:00.115Z,83.41
2022-12-20T07:12:00.102Z,83.83
2022-12-20T07:13:00.127Z,83.62
2022-12-20T07:14:00.120Z,83.41
2022-12-20T07:15:00.072Z,83.62
2022-12-20T07:16:00.050Z,83.72
2022-12-20T07:17:00.150Z,83.17
2022-12-20T07:18:00.041Z,82.89
2022-12-20T07:19:00.104Z,83.41
2022-12-20T07:20:00.009Z,83.97
2022-12-20T07:21:00.002Z,84.17
2022-12-20T07:21:59.993Z,84.28
2022-12-20T07:22:59.980Z,84.03
2022-12-20T07:23:59.971Z,84.07
2022-12-20T07:24:59.968Z,84.28
2022-12-20T07:25:59.948Z,84.13
2022-12-20T07:26:59.930Z,83.93
2022-12-20T07:27:59.921Z,83.83
2022-12-20T07:28:59.909Z,83.83
2022-12-20T07:29:59.889Z,83.72
2022-12-20T07:30:59.899Z,83.58
2022-12-20T07:31:59.911Z,83.17
2022-12-20T07:32:59.874Z,82.86
2022-12-20T07:33:59.859Z,82.86
2022-12-20T07:34:59.836Z,82.55
2022-12-20T07:35:59.848Z,82.34
2022-12-20T07:36:59.820Z,82.03
2022-12-20T07:37:59.828Z,82.14
2022-12-20T07:38:59.799Z,82.55
2022-12-20T07:39:59.786Z,82.45
2022-12-20T07:40:59.778Z,82.34
2022-12-20T07:41:59.809Z,82.14
2022-12-20T07:42:59.751Z,82.14
2022-12-20T07:43:59.737Z,82.14
2022-12-20T07:44:59.734Z,81.93
2022-12-20T07:46:00.421Z,82.24
2022-12-20T07:46:59.728Z,82.10
2022-12-20T07:48:04.868Z,81.89
2022-12-20T07:49:00.697Z,81.89
2022-12-20T07:49:59.668Z,81.93
2022-12-20T07:50:59.660Z,82.14
2022-12-20T07:51:59.647Z,82.14
2022-12-20T07:52:59.660Z,82.03
2022-12-20T07:53:59.637Z,82.14
2022-12-20T07:54:59.622Z,82.24
2022-12-20T07:55:59.615Z,82.10
2022-12-20T07:56:59.609Z,81.99
2022-12-20T07:57:59.596Z,81.89
2022-12-20T07:58:59.569Z,81.99
2022-12-20T07:59:59.570Z,81.93
2022-12-20T08:00:59.603Z,82.65
2022-12-20T08:02:04.795Z,82.61
2022-12-20T08:03:00.932Z,82.40
2022-12-20T08:03:59.592Z,82.30
2022-12-20T08:04:59.518Z,82.10
2022-12-20T08:05:59.497Z,81.93
2022-12-20T08:06:59.476Z,82.24
2022-12-20T08:07:59.759Z,82.45
2022-12-20T08:08:59.466Z,82.45
2022-12-20T08:09:59.438Z,82.96
2022-12-20T08:10:59.445Z,83.58
2022-12-20T08:11:59.425Z,83.17
2022-12-20T08:12:59.425Z,83.51
2022-12-20T08:13:59.482Z,84.03
2022-12-20T08:14:59.398Z,84.03
2022-12-20T08:15:59.368Z,84.13
2022-12-20T08:16:59.425Z,84.23
2022-12-20T08:17:59.346Z,83.89
2022-12-20T08:18:59.336Z,83.37
2022-12-20T08:19:59.335Z,83.13
2022-12-20T08:20:59.318Z,82.96
2022-12-20T08:21:59.316Z,82.96
2022-12-20T08:22:59.297Z,82.86
2022-12-20T08:23:59.287Z,83.17
2022-12-20T08:24:59.285Z,82.92
2022-12-20T08:25:59.255Z,82.61
2022-12-20T08:26:59.255Z,82.40
2022-12-20T08:27:59.236Z,82.16
2022-12-20T08:28:59.219Z,81.75
2022-12-20T08:29:59.205Z,81.96
2022-12-20T08:30:59.269Z,81.75
2022-12-20T08:31:59.183Z,81.44
2022-12-20T08:32:59.184Z,80.72
2022-12-20T08:33:59.170Z,80.72
2022-12-20T08:34:59.161Z,80.93
2022-12-20T08:35:59.136Z,81.13
2022-12-20T08:36:59.148Z,81.13
2022-12-20T08:37:59.114Z,81.13
2022-12-20T08:38:59.117Z,81.54
2022-12-20T08:39:59.096Z,81.58
2022-12-20T08:40:59.085Z,82.40
2022-12-20T08:41:59.066Z,82.20
2022-12-20T08:43:00.492Z,82.61
2022-12-20T08:43:59.044Z,82.78
2022-12-20T08:44:59.075Z,82.12
2022-12-20T08:45:59.095Z,81.37
2022-12-20T08:46:59.013Z,81.40
2022-12-20T08:47:59.018Z,81.16
2022-12-20T08:48:58.993Z,80.79
2022-12-20T08:49:58.977Z,80.99
2022-12-20T08:50:59.174Z,80.75
2022-12-20T08:51:58.973Z,80.44
2022-12-20T08:52:58.944Z,80.95
2022-12-20T08:53:58.971Z,81.09
2022-12-20T08:55:01.415Z,81.16
2022-12-20T08:55:58.904Z,80.95
2022-12-20T08:56:58.895Z,80.85
2022-12-20T08:57:58.881Z,81.09
2022-12-20T08:58:58.873Z,81.40
2022-12-20T08:59:58.886Z,81.61
2022-12-20T09:01:03.039Z,81.51
2022-12-20T09:02:00.064Z,81.26
2022-12-20T09:02:58.904Z,81.40
2022-12-20T09:03:58.935Z,81.30
2022-12-20T09:04:58.833Z,82.12
2022-12-20T09:05:58.790Z,82.12
2022-12-20T09:06:58.783Z,81.92
2022-12-20T09:07:58.764Z,81.98
2022-12-20T09:08:58.764Z,81.37
2022-12-20T09:09:58.754Z,80.85
2022-12-20T09:10:58.756Z,81.61
2022-12-20T09:11:58.722Z,81.92
2022-12-20T09:12:58.712Z,82.12
2022-12-20T09:13:58.706Z,82.74
2022-12-20T09:14:58.685Z,82.43
2022-12-20T09:15:58.757Z,82.43
2022-12-20T09:16:58.748Z,82.54
2022-12-20T09:17:58.653Z,82.12
2022-12-20T09:19:04.659Z,82.54
2022-12-20T09:19:59.639Z,82.02
2022-12-20T09:20:58.620Z,82.64
2022-12-20T09:21:58.603Z,82.33
2022-12-20T09:22:58.644Z,82.23
2022-12-20T09:23:58.591Z,81.67
2022-12-20T09:24:58.578Z,81.57
2022-12-20T09:25:58.564Z,81.71
2022-12-20T09:26:58.553Z,81.57
2022-12-20T09:27:58.578Z,81.77
2022-12-20T09:28:58.557Z,81.67
2022-12-20T09:29:58.513Z,81.37
2022-12-20T09:30:58.544Z,81.33
2022-12-20T09:31:58.493Z,80.91
2022-12-20T09:32:58.481Z,80.81
2022-12-20T09:33:59.489Z,81.23
2022-12-20T09:34:58.459Z,80.85
2022-12-20T09:35:58.465Z,80.81
2022-12-20T09:36:58.446Z,80.71
2022-12-20T09:37:58.424Z,80.61
2022-12-20T09:38:58.422Z,80.40
2022-12-20T09:39:58.418Z,80.51
2022-12-20T09:40:58.412Z,80.26
2022-12-20T09:41:58.385Z,79.85
2022-12-20T09:42:58.378Z,80.05
2022-12-20T09:43:58.404Z,80.05
2022-12-20T09:44:58.371Z,79.99
2022-12-20T09:45:58.413Z,79.85
2022-12-20T09:46:58.408Z,79.85
2022-12-20T09:47:58.309Z,79.88
2022-12-20T09:48:58.301Z,81.02
2022-12-20T09:49:58.289Z,80.26
2022-12-20T09:50:58.308Z,80.30
2022-12-20T09:51:58.283Z,80.61
2022-12-20T09:52:58.258Z,80.71
2022-12-20T09:53:58.283Z,80.36
2022-12-20T09:54:58.262Z,80.57
2022-12-20T09:55:58.221Z,80.57
2022-12-20T09:56:58.231Z,80.36
2022-12-20T09:57:58.201Z,79.81
2022-12-20T09:58:58.195Z,79.50
2022-12-20T09:59:58.197Z,79.30
2022-12-20T10:00:58.171Z,79.09
2022-12-20T10:02:08.051Z,79.23
2022-12-20T10:03:08.928Z,80.02
2022-12-20T10:03:59.275Z,79.85
2022-12-20T10:04:58.221Z,80.16
2022-12-20T10:05:58.268Z,79.85
2022-12-20T10:06:58.102Z,79.75
2022-12-20T10:07:58.091Z,80.05
2022-12-20T10:08:58.090Z,80.16
2022-12-20T10:09:58.061Z,80.16
2022-12-20T10:10:58.050Z,79.91
2022-12-20T10:11:58.040Z,79.71
2022-12-20T10:12:58.030Z,79.61
2022-12-20T10:13:58.099Z,79.64
2022-12-20T10:14:58.008Z,80.05
2022-12-20T10:15:58.063Z,80.16
2022-12-20T10:16:57.991Z,80.26
2022-12-20T10:17:57.974Z,80.36
2022-12-20T10:18:57.975Z,80.22
2022-12-20T10:19:57.987Z,79.91
2022-12-20T10:20:58.381Z,80.26
2022-12-20T10:21:57.929Z,80.47
2022-12-20T10:22:57.921Z,80.57
2022-12-20T10:23:57.909Z,80.57
2022-12-20T10:24:57.900Z,80.47
2022-12-20T10:25:57.899Z,81.02
2022-12-20T10:26:57.870Z,81.09
2022-12-20T10:27:57.863Z,81.12
2022-12-20T10:28:57.848Z,81.23
2022-12-20T10:29:57.850Z,81.84
2022-12-20T10:30:57.904Z,81.95
2022-12-20T10:31:57.809Z,81.81
2022-12-20T10:32:57.801Z,81.70
2022-12-20T10:33:57.796Z,81.49
2022-12-20T10:34:57.780Z,81.09
2022-12-20T10:35:57.766Z,80.84
2022-12-20T10:36:57.787Z,80.84
2022-12-20T10:38:07.022Z,80.53
2022-12-20T10:38:58.755Z,80.43
2022-12-20T10:40:02.045Z,80.12
2022-12-20T10:41:21.296Z,80.22
2022-12-20T10:41:58.718Z,79.67
2022-12-20T10:42:57.696Z,79.47
2022-12-20T10:43:57.682Z,79.05
2022-12-20T10:44:57.671Z,79.16
2022-12-20T10:45:57.671Z,79.05
2022-12-20T10:46:57.747Z,78.54
2022-12-20T10:47:57.648Z,78.50
2022-12-20T10:48:57.627Z,78.40
2022-12-20T10:49:57.613Z,78.09
2022-12-20T10:50:57.608Z,78.30
2022-12-20T10:51:57.626Z,78.30
2022-12-20T10:52:57.598Z,78.30
2022-12-20T10:53:57.569Z,78.85
2022-12-20T10:54:57.558Z,79.57
2022-12-20T10:55:57.549Z,79.57
2022-12-20T10:56:57.544Z,80.49
2022-12-20T10:57:57.525Z,80.39
2022-12-20T10:58:57.538Z,80.19
2022-12-20T10:59:57.541Z,79.77
2022-12-20T11:00:57.487Z,79.57
2022-12-20T11:01:57.566Z,79.63
2022-12-20T11:02:57.682Z,79.02
2022-12-20T11:03:57.599Z,78.81
2022-12-20T11:04:57.517Z,78.61
2022-12-20T11:05:57.428Z,78.61
2022-12-20T11:06:57.477Z,78.71
2022-12-20T11:08:36.040Z,78.27
2022-12-20T11:09:00.940Z,77.85
2022-12-20T11:09:57.410Z,77.58
2022-12-20T11:10:57.421Z,78.71
2022-12-20T11:11:57.366Z,78.36
2022-12-20T11:12:57.350Z,78.67
2022-12-20T11:13:57.337Z,78.27
2022-12-20T11:14:57.329Z,78.36
2022-12-20T11:15:57.958Z,78.20
2022-12-20T11:16:57.327Z,78.61
2022-12-20T11:17:57.299Z,79.12
2022-12-20T11:18:57.292Z,79.12
2022-12-20T11:19:57.274Z,78.92
2022-12-20T11:20:57.262Z,78.71
2022-12-20T11:21:57.250Z,78.61
2022-12-20T11:22:57.257Z,78.71
2022-12-20T11:23:57.229Z,78.81
2022-12-20T11:24:57.217Z,78.96
2022-12-20T11:25:57.205Z,79.26
2022-12-20T11:26:57.198Z,79.67
2022-12-20T11:27:57.207Z,79.91
2022-12-20T11:28:57.188Z,80.36
2022-12-20T11:29:57.165Z,80.98
2022-12-20T11:30:57.212Z,81.19
2022-12-20T11:31:57.275Z,81.09
2022-12-20T11:32:57.127Z,80.84
2022-12-20T11:33:57.184Z,80.57
2022-12-20T11:34:57.100Z,80.74
2022-12-20T11:35:57.097Z,80.63
2022-12-20T11:36:57.075Z,80.63
2022-12-20T11:37:57.065Z,80.84
2022-12-20T11:38:57.079Z,80.53
2022-12-20T11:39:57.052Z,80.63
2022-12-20T11:40:57.035Z,80.53
2022-12-20T11:41:57.036Z,80.19
2022-12-20T11:42:57.009Z,80.12
2022-12-20T11:44:23.830Z,80.57
2022-12-20T11:45:03.750Z,81.05
2022-12-20T11:45:57.986Z,80.88
2022-12-20T11:46:57.009Z,80.98
2022-12-20T11:47:56.958Z,80.98
2022-12-20T11:48:56.946Z,81.25
2022-12-20T11:49:56.935Z,81.25
2022-12-20T11:50:56.934Z,80.94
2022-12-20T11:51:56.914Z,81.15
2022-12-20T11:52:56.902Z,81.35
2022-12-20T11:53:56.887Z,81.15
2022-12-20T11:54:56.879Z,80.70
2022-12-20T11:55:56.884Z,80.53
2022-12-20T11:56:56.857Z,80.63
2022-12-20T11:58:17.457Z,80.84
2022-12-20T11:58:57.827Z,80.39
2022-12-20T11:59:56.832Z,80.63
2022-12-20T12:00:56.807Z,81.09
2022-12-20T12:01:56.939Z,81.39
2022-12-20T12:02:58.539Z,81.05
2022-12-20T12:03:56.776Z,81.09
2022-12-20T12:04:56.805Z,81.05
2022-12-20T12:05:56.764Z,81.25
2022-12-20T12:06:56.734Z,80.94
2022-12-20T12:07:56.764Z,81.29
2022-12-20T12:08:56.715Z,81.09
2022-12-20T12:09:56.728Z,81.49
2022-12-20T12:10:56.694Z,81.49
2022-12-20T12:12:06.584Z,81.60
2022-12-20T12:12:57.696Z,81.39
2022-12-20T12:13:56.668Z,81.60
2022-12-20T12:14:56.649Z,81.91
2022-12-20T12:15:56.649Z,82.01
2022-12-20T12:16:56.712Z,82.01
2022-12-20T12:17:56.624Z,82.21
2022-12-20T12:18:56.634Z,82.21
2022-12-20T12:19:56.608Z,81.70
2022-12-20T12:20:56.603Z,81.49
2022-12-20T12:21:56.596Z,81.29
2022-12-20T12:22:56.574Z,81.29
2022-12-20T12:23:56.557Z,81.49
2022-12-20T12:24:56.556Z,81.49
2022-12-20T12:25:56.544Z,81.25
2022-12-20T12:26:56.524Z,80.53
2022-12-20T12:27:56.505Z,80.49
2022-12-20T12:28:56.494Z,79.88
2022-12-20T12:29:56.546Z,79.77
2022-12-20T12:30:56.522Z,80.08
2022-12-20T12:31:56.559Z,79.98
2022-12-20T12:32:56.446Z,79.98
2022-12-20T12:33:56.453Z,80.08
2022-12-20T12:34:56.440Z,80.53
2022-12-20T12:35:56.423Z,80.39
2022-12-20T12:36:56.434Z,79.77
2022-12-20T12:37:56.453Z,80.02
2022-12-20T12:39:01.992Z,80.84
2022-12-20T12:39:57.381Z,81.05
2022-12-20T12:40:56.366Z,80.74
2022-12-20T12:41:56.384Z,80.63
2022-12-20T12:42:56.344Z,80.98
2022-12-20T12:43:56.341Z,81.05
2022-12-20T12:44:56.328Z,81.09
2022-12-20T12:45:56.377Z,81.05
2022-12-20T12:46:56.310Z,81.19
2022-12-20T12:47:56.314Z,81.19
2022-12-20T12:48:56.340Z,81.49
2022-12-20T12:49:56.314Z,81.39
2022-12-20T12:50:56.308Z,81.39
2022-12-20T12:51:56.321Z,81.60